Terminal Aerodrome Forecast
Issued by NWS

Home | Current Version | Previous Version | Text Only | Print | Product List | Glossary On
Versions: 1 2 3 4 5 6 7 8 9 10 11 12 13 14 15 16
000
FTUS44 KJAN 290550 RRA
TAFGTR
TAF
KGTR 290550Z 2906/3006 15004KT P6SM FEW250
     FM291100 15003KT 5SM BR BKN015 OVC030
     FM291500 15010KT P6SM BKN025 BKN050
     FM291700 16010G19KT P6SM SCT030 BKN050
     FM292230 27010G20KT 5SM -TSRA BKN030CB BKN050
     FM300000 03006KT P6SM VCTS SCT030 BKN050CB
     FM300500 13009KT P6SM SCT020 BKN040=

USA.gov is the U.S. government's official web portal to all federal, state and local government web resources and services.